createdAt,value
2022-08-28T00:01:36.449Z,11.60
2022-08-28T00:04:06.824Z,11.00
2022-08-28T00:06:37.155Z,12.20
2022-08-28T00:09:07.972Z,10.80
2022-08-28T00:11:41.128Z,8.60
2022-08-28T00:14:12.284Z,11.60
2022-08-28T00:16:43.043Z,9.80
2022-08-28T00:19:13.723Z,9.40
2022-08-28T00:21:44.344Z,9.00
2022-08-28T00:24:14.725Z,9.20
2022-08-28T00:26:45.541Z,10.40
2022-08-28T00:29:15.896Z,9.80
2022-08-28T00:31:46.133Z,9.00
2022-08-28T00:34:16.492Z,7.20
2022-08-28T00:36:46.796Z,11.40
2022-08-28T00:39:17.184Z,8.80
2022-08-28T00:41:49.427Z,11.40
2022-08-28T00:44:24.894Z,9.40
2022-08-28T00:46:57.598Z,9.00
2022-08-28T00:49:31.645Z,11.60
2022-08-28T00:52:04.783Z,10.80
2022-08-28T00:54:41.572Z,8.40
2022-08-28T00:57:16.474Z,11.80
2022-08-28T00:59:46.780Z,7.40
2022-08-28T01:02:18.959Z,12.60
2022-08-28T01:04:50.753Z,9.60
2022-08-28T01:07:22.258Z,11.60
2022-08-28T01:09:54.901Z,10.80
2022-08-28T01:12:31.000Z,9.60
2022-08-28T01:15:04.546Z,12.00
2022-08-28T01:17:35.961Z,10.80
2022-08-28T01:20:10.930Z,11.60
2022-08-28T01:22:59.913Z,9.40
2022-08-28T01:25:33.333Z,11.00
2022-08-28T01:28:06.358Z,12.00
2022-08-28T01:30:36.938Z,11.60
2022-08-28T01:33:07.285Z,9.20
2022-08-28T01:35:41.949Z,11.00
2022-08-28T01:38:12.817Z,9.20
2022-08-28T01:40:47.329Z,10.60
2022-08-28T01:43:23.518Z,12.60
2022-08-28T01:45:57.560Z,10.00
2022-08-28T01:48:29.049Z,11.40
2022-08-28T01:50:59.698Z,11.80
2022-08-28T01:53:33.042Z,11.00
2022-08-28T01:56:06.711Z,10.20
2022-08-28T01:58:39.367Z,10.60
2022-08-28T02:01:12.612Z,9.80
2022-08-28T02:03:43.588Z,11.00
2022-08-28T02:06:16.442Z,11.00
2022-08-28T02:08:47.005Z,12.20
2022-08-28T02:11:20.493Z,8.20
2022-08-28T02:13:52.623Z,11.00
2022-08-28T02:16:24.229Z,10.20
2022-08-28T02:18:54.959Z,11.00
2022-08-28T02:21:25.594Z,11.80
2022-08-28T02:23:56.104Z,10.00
2022-08-28T02:26:27.977Z,10.60
2022-08-28T02:28:59.022Z,11.80
2022-08-28T02:31:29.326Z,7.40
2022-08-28T02:33:59.664Z,11.20
2022-08-28T02:36:30.499Z,10.00
2022-08-28T02:39:00.802Z,11.40
2022-08-28T02:41:31.220Z,8.40
2022-08-28T02:44:01.684Z,10.60
2022-08-28T02:46:32.283Z,9.20
2022-08-28T02:49:02.660Z,9.00
2022-08-28T02:51:33.552Z,10.80
2022-08-28T02:54:04.047Z,8.80
2022-08-28T02:56:35.610Z,11.20
2022-08-28T02:59:05.909Z,12.60
2022-08-28T03:01:36.885Z,13.00
2022-08-28T03:04:07.438Z,11.60
2022-08-28T03:06:39.593Z,10.20
2022-08-28T03:09:10.000Z,12.00
2022-08-28T03:11:40.329Z,11.80
2022-08-28T03:14:10.723Z,11.80
2022-08-28T03:16:41.246Z,12.40
2022-08-28T03:19:11.596Z,11.20
2022-08-28T03:21:41.864Z,11.80
2022-08-28T03:24:12.090Z,10.80
2022-08-28T03:26:44.072Z,10.60
2022-08-28T03:29:14.610Z,11.80
2022-08-28T03:31:44.967Z,11.20
2022-08-28T03:34:15.430Z,13.00
2022-08-28T03:36:45.796Z,11.80
2022-08-28T03:39:16.259Z,7.20
2022-08-28T03:41:46.790Z,12.20
2022-08-28T03:44:17.178Z,11.40
2022-08-28T03:46:47.593Z,13.60
2022-08-28T03:49:17.832Z,10.20
2022-08-28T03:51:49.835Z,13.40
2022-08-28T03:54:20.190Z,11.60
2022-08-28T03:56:51.260Z,10.40
2022-08-28T03:59:21.647Z,9.20
2022-08-28T04:01:53.720Z,10.00
2022-08-28T04:04:24.065Z,8.20
2022-08-28T04:06:55.031Z,5.20
2022-08-28T04:09:25.446Z,15.00
2022-08-28T04:11:55.719Z,10.20
2022-08-28T04:14:26.149Z,11.00
2022-08-28T04:17:01.293Z,6.00
2022-08-28T04:19:29.105Z,11.00
2022-08-28T04:22:01.234Z,17.00
2022-08-28T04:24:31.856Z,24.50
2022-08-28T04:27:02.340Z,10.80
2022-08-28T04:29:33.148Z,9.60
2022-08-28T04:32:03.759Z,11.00
2022-08-28T04:34:36.185Z,10.20
2022-08-28T04:37:06.619Z,11.00
2022-08-28T04:39:38.259Z,10.20
2022-08-28T04:42:08.813Z,13.60
2022-08-28T04:44:39.399Z,17.20
2022-08-28T04:47:10.183Z,18.20
2022-08-28T04:49:40.619Z,10.00
2022-08-28T04:52:11.020Z,10.80
2022-08-28T04:54:41.323Z,14.80
2022-08-28T04:57:11.736Z,15.40
2022-08-28T04:59:41.916Z,12.80
2022-08-28T05:02:12.453Z,10.60
2022-08-28T05:04:43.096Z,8.20
2022-08-28T05:07:13.815Z,19.40
2022-08-28T05:09:44.229Z,18.60
2022-08-28T05:12:14.688Z,10.50
2022-08-28T05:14:46.256Z,10.00
2022-08-28T05:17:16.828Z,13.00
2022-08-28T05:19:47.766Z,13.40
2022-08-28T05:22:18.276Z,11.60
2022-08-28T05:24:48.644Z,10.80
2022-08-28T05:27:18.973Z,11.80
2022-08-28T05:29:51.064Z,8.80
2022-08-28T05:32:24.728Z,10.40
2022-08-28T05:34:54.720Z,11.60
2022-08-28T05:37:25.038Z,11.60
2022-08-28T05:39:55.533Z,11.60
2022-08-28T05:42:30.703Z,11.00
2022-08-28T05:44:58.303Z,10.00
2022-08-28T05:47:28.668Z,11.00
2022-08-28T05:49:59.408Z,11.20
2022-08-28T05:52:29.745Z,13.80
2022-08-28T05:55:01.615Z,10.40
2022-08-28T05:57:40.144Z,9.80
2022-08-28T06:00:11.181Z,11.20
2022-08-28T06:02:42.933Z,10.80
2022-08-28T06:05:13.477Z,12.20
2022-08-28T06:07:43.783Z,14.80
2022-08-28T06:10:14.103Z,10.00
2022-08-28T06:12:45.625Z,12.60
2022-08-28T06:15:16.254Z,13.60
2022-08-28T06:17:46.590Z,12.20
2022-08-28T06:20:16.978Z,12.20
2022-08-28T06:22:48.757Z,13.80
2022-08-28T06:25:19.106Z,14.20
2022-08-28T06:27:49.483Z,7.60
2022-08-28T06:30:19.787Z,13.60
2022-08-28T06:32:50.504Z,15.60
2022-08-28T06:35:24.195Z,13.80
2022-08-28T06:37:54.553Z,15.00
2022-08-28T06:40:25.671Z,17.20
2022-08-28T06:42:56.000Z,15.00
2022-08-28T06:45:26.463Z,14.20
2022-08-28T06:47:57.198Z,11.60
2022-08-28T06:50:27.840Z,12.00
2022-08-28T06:52:58.228Z,13.80
2022-08-28T06:55:28.638Z,13.00
2022-08-28T06:57:59.956Z,15.20
2022-08-28T07:00:30.609Z,13.60
2022-08-28T07:03:00.965Z,13.80
2022-08-28T07:05:32.207Z,13.60
2022-08-28T07:08:02.949Z,13.80
2022-08-28T07:10:33.422Z,14.40
2022-08-28T07:13:03.831Z,15.40
2022-08-28T07:15:35.057Z,17.60
2022-08-28T07:18:06.968Z,19.40
2022-08-28T07:20:37.584Z,17.00
2022-08-28T07:23:07.911Z,18.60
2022-08-28T07:25:42.152Z,18.80
2022-08-28T07:28:12.954Z,18.60
2022-08-28T07:30:43.605Z,19.00
2022-08-28T07:33:13.981Z,17.40
2022-08-28T07:35:45.639Z,17.80
2022-08-28T07:38:15.885Z,19.20
2022-08-28T07:40:46.602Z,17.00
2022-08-28T07:43:17.479Z,18.60
2022-08-28T07:45:47.945Z,18.20
2022-08-28T07:48:18.429Z,19.20
2022-08-28T07:50:50.709Z,19.20
2022-08-28T07:53:21.660Z,18.20
2022-08-28T07:55:52.591Z,18.80
2022-08-28T07:58:23.108Z,13.20
2022-08-28T08:00:54.629Z,19.20
2022-08-28T08:03:24.939Z,18.00
2022-08-28T08:05:57.590Z,17.40
2022-08-28T08:08:33.648Z,17.80
2022-08-28T08:11:16.513Z,16.40
2022-08-28T08:13:45.773Z,17.80
2022-08-28T08:16:19.181Z,17.20
2022-08-28T08:18:50.790Z,14.80
2022-08-28T08:21:22.807Z,18.60
2022-08-28T08:23:54.855Z,16.80
2022-08-28T08:26:27.132Z,16.80
2022-08-28T08:28:58.566Z,17.40
2022-08-28T08:31:33.916Z,18.00
2022-08-28T08:34:06.710Z,17.00
2022-08-28T08:36:40.997Z,16.20
2022-08-28T08:39:12.170Z,16.20
2022-08-28T08:41:45.803Z,16.40
2022-08-28T08:44:21.926Z,14.00
2022-08-28T08:47:10.655Z,13.20
2022-08-28T08:49:42.187Z,15.00
2022-08-28T08:52:18.396Z,13.60
2022-08-28T08:55:03.774Z,15.40
2022-08-28T08:57:37.766Z,13.80
2022-08-28T09:00:15.546Z,13.80
2022-08-28T09:02:45.616Z,13.00
2022-08-28T09:05:18.851Z,13.40
2022-08-28T09:07:58.335Z,9.80
2022-08-28T09:10:32.070Z,11.20
2022-08-28T09:13:05.363Z,8.60
2022-08-28T09:15:46.341Z,9.80
2022-08-28T09:18:27.383Z,10.40
2022-08-28T09:21:00.474Z,11.20
2022-08-28T09:23:30.888Z,13.00
2022-08-28T09:26:06.210Z,10.80
2022-08-28T09:28:40.120Z,11.20
2022-08-28T09:31:15.973Z,11.80
2022-08-28T09:33:50.496Z,14.20
2022-08-28T09:36:29.572Z,14.20
2022-08-28T09:39:14.136Z,12.60
2022-08-28T09:41:50.035Z,15.20
2022-08-28T09:44:20.407Z,12.60
2022-08-28T09:46:52.051Z,12.40
2022-08-28T09:49:30.309Z,13.80
2022-08-28T09:52:03.540Z,16.00
2022-08-28T09:54:37.528Z,12.80
2022-08-28T09:57:08.474Z,16.20
2022-08-28T09:59:39.027Z,13.20
2022-08-28T10:02:27.530Z,14.60
2022-08-28T10:05:03.608Z,16.40
2022-08-28T10:07:42.959Z,15.40
2022-08-28T10:10:28.807Z,19.00
2022-08-28T10:13:18.279Z,18.40
2022-08-28T10:16:15.478Z,18.00
2022-08-28T10:18:58.214Z,18.20
2022-08-28T10:21:31.893Z,17.20
2022-08-28T10:24:27.750Z,19.20
2022-08-28T10:27:13.766Z,18.60
2022-08-28T10:29:49.768Z,18.20
2022-08-28T10:32:50.683Z,19.00
2022-08-28T10:35:29.918Z,18.60
2022-08-28T10:38:12.155Z,18.60
2022-08-28T10:40:48.236Z,16.20
2022-08-28T10:43:30.616Z,12.20
2022-08-28T10:46:06.939Z,6.40
2022-08-28T10:48:56.778Z,10.80
2022-08-28T10:51:47.886Z,10.00
2022-08-28T10:54:33.200Z,10.20
2022-08-28T10:57:24.321Z,10.40
2022-08-28T10:59:54.901Z,8.40
2022-08-28T11:02:27.889Z,8.80
2022-08-28T11:04:58.982Z,9.80
2022-08-28T11:07:35.045Z,8.20
2022-08-28T11:10:35.817Z,11.40
2022-08-28T11:13:09.310Z,10.00
2022-08-28T11:15:46.106Z,7.40
2022-08-28T11:18:28.676Z,9.80
2022-08-28T11:21:14.066Z,9.00
2022-08-28T11:23:53.448Z,6.20
2022-08-28T11:26:35.728Z,7.80
2022-08-28T11:29:06.109Z,7.00
2022-08-28T11:31:39.726Z,5.80
2022-08-28T11:34:15.315Z,5.00
2022-08-28T11:36:48.532Z,9.20
2022-08-28T11:39:21.620Z,8.20
2022-08-28T11:42:11.342Z,12.00
2022-08-28T11:44:46.711Z,13.00
2022-08-28T11:47:41.501Z,10.20
2022-08-28T11:50:20.379Z,12.80
2022-08-28T11:53:13.196Z,11.20
2022-08-28T11:56:07.305Z,11.00
2022-08-28T11:59:09.957Z,12.60
2022-08-28T12:01:41.889Z,13.20
2022-08-28T12:04:17.624Z,11.00
2022-08-28T12:07:15.491Z,10.20
2022-08-28T12:09:49.910Z,10.20
2022-08-28T12:15:03.435Z,11.20
2022-08-28T12:17:42.925Z,10.60
2022-08-28T12:20:22.133Z,13.40
2022-08-28T12:22:55.943Z,13.40
2022-08-28T12:25:49.766Z,12.40
2022-08-28T12:28:29.000Z,15.20
2022-08-28T12:31:08.275Z,16.00
2022-08-28T12:33:44.415Z,13.00
2022-08-28T12:36:17.435Z,13.60
2022-08-28T12:38:50.772Z,14.60
2022-08-28T12:41:23.071Z,15.80
2022-08-28T12:43:57.417Z,13.60
2022-08-28T12:46:35.120Z,13.80
2022-08-28T12:49:10.025Z,15.60
2022-08-28T12:51:40.318Z,13.80
2022-08-28T12:54:14.037Z,15.20
2022-08-28T12:56:48.997Z,14.80
2022-08-28T13:02:32.929Z,11.40
2022-08-28T13:05:08.963Z,15.20
2022-08-28T13:07:47.687Z,15.60
2022-08-28T13:10:41.379Z,15.00
2022-08-28T13:13:31.070Z,16.00
2022-08-28T13:16:08.012Z,16.20
2022-08-28T13:18:55.447Z,16.20
2022-08-28T13:21:32.739Z,14.80
2022-08-28T13:24:02.535Z,14.80
2022-08-28T13:26:37.663Z,13.20
2022-08-28T13:29:22.899Z,10.20
2022-08-28T13:32:01.949Z,12.40
2022-08-28T13:34:35.526Z,8.60
2022-08-28T13:37:14.818Z,13.80
2022-08-28T13:39:41.035Z,12.80
2022-08-28T13:42:14.361Z,12.60
2022-08-28T13:44:49.678Z,12.20
2022-08-28T13:47:19.929Z,15.40
2022-08-28T13:49:50.204Z,12.80
2022-08-28T13:52:21.112Z,13.20
2022-08-28T13:54:51.389Z,13.80
2022-08-28T13:57:21.711Z,13.00
2022-08-28T13:59:55.455Z,14.20
2022-08-28T14:02:24.201Z,15.60
2022-08-28T14:04:54.482Z,15.00
2022-08-28T14:07:24.774Z,15.80
2022-08-28T14:09:56.733Z,17.00
2022-08-28T14:12:32.933Z,16.80
2022-08-28T14:14:59.892Z,14.40
2022-08-28T14:17:30.576Z,15.60
2022-08-28T14:20:00.877Z,16.80
2022-08-28T14:22:33.440Z,16.80
2022-08-28T14:25:05.181Z,14.00
2022-08-28T14:27:35.841Z,13.40
2022-08-28T14:30:09.025Z,15.00
2022-08-28T14:32:42.002Z,13.40
2022-08-28T14:35:12.536Z,13.80
2022-08-28T14:37:42.974Z,13.60
2022-08-28T14:40:13.970Z,12.60
2022-08-28T14:42:44.195Z,12.00
2022-08-28T14:45:15.028Z,12.80
2022-08-28T14:47:45.521Z,13.60
2022-08-28T14:50:17.553Z,15.20
2022-08-28T14:52:50.596Z,13.00
2022-08-28T14:55:20.752Z,13.00
2022-08-28T14:57:51.473Z,12.60
2022-08-28T15:00:21.877Z,14.80
2022-08-28T15:02:53.331Z,13.60
2022-08-28T15:05:24.279Z,15.00
2022-08-28T15:07:55.554Z,14.20
2022-08-28T15:10:26.074Z,15.60
2022-08-28T15:12:56.922Z,14.00
2022-08-28T15:15:29.049Z,15.40
2022-08-28T15:18:00.552Z,15.20
2022-08-28T15:20:31.105Z,14.00
2022-08-28T15:23:01.311Z,14.00
2022-08-28T15:25:31.687Z,14.80
2022-08-28T15:28:02.039Z,13.40
2022-08-28T15:30:33.630Z,14.60
2022-08-28T15:33:04.466Z,14.80
2022-08-28T15:35:34.846Z,14.80
2022-08-28T15:38:06.689Z,16.40
2022-08-28T15:40:44.070Z,15.00
2022-08-28T15:43:14.482Z,13.40
2022-08-28T15:45:45.152Z,14.00
2022-08-28T15:48:15.731Z,16.00
2022-08-28T15:50:46.061Z,15.40
2022-08-28T15:53:18.232Z,11.80
2022-08-28T15:55:48.508Z,14.40
2022-08-28T15:58:18.941Z,12.40
2022-08-28T16:00:49.451Z,13.00
2022-08-28T16:03:19.983Z,12.80
2022-08-28T16:05:50.376Z,13.60
2022-08-28T16:08:20.915Z,19.00
2022-08-28T16:10:52.774Z,13.20
2022-08-28T16:13:23.616Z,12.00
2022-08-28T16:15:53.974Z,12.60
2022-08-28T16:18:24.856Z,14.20
2022-08-28T16:20:55.191Z,10.40
2022-08-28T16:23:25.654Z,11.20
2022-08-28T16:25:56.200Z,10.20
2022-08-28T16:28:27.202Z,12.00
2022-08-28T16:30:57.611Z,13.00
2022-08-28T16:33:29.228Z,12.60
2022-08-28T16:35:59.572Z,12.00
2022-08-28T16:38:30.312Z,10.60
2022-08-28T16:41:00.627Z,9.40
2022-08-28T16:43:30.983Z,12.00
2022-08-28T16:46:01.482Z,10.80
2022-08-28T16:48:32.781Z,11.20
2022-08-28T16:51:03.194Z,11.80
2022-08-28T16:53:34.777Z,12.20
2022-08-28T16:56:05.488Z,11.00
2022-08-28T16:58:37.106Z,9.60
2022-08-28T17:01:08.590Z,8.00
2022-08-28T17:03:40.907Z,10.20
2022-08-28T17:06:23.048Z,9.20
2022-08-28T17:08:56.852Z,24.40
2022-08-28T17:11:28.836Z,9.20
2022-08-28T17:13:59.254Z,10.40
2022-08-28T17:16:30.817Z,13.80
2022-08-28T17:19:02.098Z,9.20
2022-08-28T17:21:32.561Z,12.80
2022-08-28T17:24:03.499Z,14.00
2022-08-28T17:26:33.899Z,14.20
2022-08-28T17:29:05.509Z,11.60
2022-08-28T17:31:36.135Z,14.60
2022-08-28T17:34:07.247Z,15.20
2022-08-28T17:36:40.255Z,14.60
2022-08-28T17:39:13.248Z,8.80
2022-08-28T17:41:43.700Z,14.00
2022-08-28T17:44:14.069Z,14.20
2022-08-28T17:46:44.475Z,12.20
2022-08-28T17:49:14.807Z,14.80
2022-08-28T17:51:45.683Z,14.00
2022-08-28T17:54:18.617Z,13.00
2022-08-28T17:56:50.175Z,14.00
2022-08-28T17:59:21.434Z,12.20
2022-08-28T18:01:52.527Z,13.40
2022-08-28T18:04:24.616Z,13.60
2022-08-28T18:06:55.410Z,14.20
2022-08-28T18:09:26.526Z,12.20
2022-08-28T18:11:56.911Z,8.80
2022-08-28T18:14:27.839Z,11.20
2022-08-28T18:16:58.174Z,13.60
2022-08-28T18:19:28.479Z,11.40
2022-08-28T18:21:58.778Z,12.60
2022-08-28T18:24:29.247Z,13.20
2022-08-28T18:27:02.683Z,12.20
2022-08-28T18:29:33.404Z,12.40
2022-08-28T18:32:05.179Z,14.40
2022-08-28T18:34:36.005Z,11.80
2022-08-28T18:37:06.417Z,12.80
2022-08-28T18:39:38.063Z,13.00
2022-08-28T18:42:08.769Z,12.20
2022-08-28T18:44:39.520Z,12.00
2022-08-28T18:47:10.429Z,11.20
2022-08-28T18:49:41.173Z,14.20
2022-08-28T18:52:11.575Z,10.80
2022-08-28T18:54:41.890Z,13.20
2022-08-28T18:57:13.845Z,15.40
2022-08-28T18:59:45.303Z,14.00
2022-08-28T19:02:17.779Z,13.20
2022-08-28T19:04:48.188Z,11.20
2022-08-28T19:07:18.577Z,14.00
2022-08-28T19:09:49.651Z,12.20
2022-08-28T19:12:19.932Z,13.00
2022-08-28T19:14:54.883Z,13.20
2022-08-28T19:17:27.187Z,12.20
2022-08-28T19:19:59.692Z,13.80
2022-08-28T19:22:30.111Z,14.80
2022-08-28T19:25:01.932Z,14.80
2022-08-28T19:27:37.931Z,16.20
2022-08-28T19:30:11.272Z,11.80
2022-08-28T19:32:43.296Z,13.80
2022-08-28T19:35:17.059Z,13.80
2022-08-28T19:37:47.744Z,12.60
2022-08-28T19:40:19.696Z,12.20
2022-08-28T19:42:51.570Z,13.00
2022-08-28T19:45:22.461Z,15.00
2022-08-28T19:47:52.962Z,11.20
2022-08-28T19:50:26.222Z,13.00
2022-08-28T19:52:56.526Z,14.60
2022-08-28T19:55:30.981Z,14.00
2022-08-28T19:58:01.759Z,13.40
2022-08-28T20:00:33.133Z,14.00
2022-08-28T20:03:03.995Z,14.20
2022-08-28T20:05:35.010Z,14.20
2022-08-28T20:08:07.042Z,14.20
2022-08-28T20:10:39.160Z,15.20
2022-08-28T20:13:10.858Z,9.60
2022-08-28T20:15:46.675Z,13.60
2022-08-28T20:18:17.533Z,13.00
2022-08-28T20:20:50.302Z,14.80
2022-08-28T20:23:20.831Z,14.00
2022-08-28T20:25:52.208Z,14.00
2022-08-28T20:28:22.488Z,14.40
2022-08-28T20:30:52.813Z,14.00
2022-08-28T20:33:24.221Z,11.00
2022-08-28T20:36:02.271Z,13.20
2022-08-28T20:38:32.892Z,13.80
2022-08-28T20:41:08.828Z,12.60
2022-08-28T20:43:39.377Z,14.80
2022-08-28T20:46:10.878Z,14.00
2022-08-28T20:48:40.323Z,12.20
2022-08-28T20:51:11.001Z,14.00
2022-08-28T20:53:42.132Z,10.40
2022-08-28T20:56:12.977Z,12.20
2022-08-28T20:58:43.658Z,15.80
2022-08-28T21:01:13.976Z,12.20
2022-08-28T21:03:44.321Z,14.40
2022-08-28T21:06:14.740Z,13.20
2022-08-28T21:08:45.028Z,13.80
2022-08-28T21:11:15.369Z,13.60
2022-08-28T21:13:47.007Z,13.40
2022-08-28T21:16:17.741Z,15.60
2022-08-28T21:19:05.371Z,13.20
2022-08-28T21:21:21.016Z,15.80
2022-08-28T21:23:53.103Z,14.00
2022-08-28T21:26:24.272Z,12.60
2022-08-28T21:28:54.724Z,10.00
2022-08-28T21:31:25.120Z,14.60
2022-08-28T21:33:55.386Z,11.00
2022-08-28T21:36:25.767Z,12.20
2022-08-28T21:38:57.635Z,12.00
2022-08-28T21:41:27.968Z,11.00
2022-08-28T21:43:58.547Z,14.80
2022-08-28T21:46:29.417Z,15.20
2022-08-28T21:49:00.026Z,14.20
2022-08-28T21:51:30.717Z,12.80
2022-08-28T21:54:00.967Z,14.60
2022-08-28T21:56:31.381Z,13.80
2022-08-28T21:59:06.184Z,14.40
2022-08-28T22:01:37.597Z,11.80
2022-08-28T22:04:08.430Z,14.60
2022-08-28T22:06:38.940Z,16.80
2022-08-28T22:09:10.500Z,15.20
2022-08-28T22:11:41.394Z,13.40
2022-08-28T22:14:11.864Z,10.80
2022-08-28T22:16:43.185Z,16.40
2022-08-28T22:19:13.944Z,9.60
2022-08-28T22:21:44.220Z,16.20
2022-08-28T22:24:14.887Z,16.20
2022-08-28T22:26:45.315Z,12.40
2022-08-28T22:29:15.788Z,12.60
2022-08-28T22:31:46.515Z,13.00
2022-08-28T22:34:16.952Z,13.20
2022-08-28T22:36:48.057Z,13.20
2022-08-28T22:39:18.482Z,13.60
2022-08-28T22:41:49.042Z,15.40
2022-08-28T22:44:19.315Z,16.20
2022-08-28T22:46:50.804Z,21.80
2022-08-28T22:49:21.113Z,8.80
2022-08-28T22:51:51.887Z,14.60
2022-08-28T22:54:22.328Z,17.60
2022-08-28T22:56:53.776Z,15.40
2022-08-28T22:59:24.219Z,19.20
2022-08-28T23:01:55.106Z,20.00
2022-08-28T23:04:26.484Z,20.20
2022-08-28T23:06:57.026Z,22.20
2022-08-28T23:09:27.883Z,23.00
2022-08-28T23:12:00.279Z,23.00
2022-08-28T23:14:31.212Z,22.00
2022-08-28T23:17:01.550Z,21.40
2022-08-28T23:19:31.883Z,22.00
2022-08-28T23:22:02.234Z,22.00
2022-08-28T23:24:32.647Z,23.40
2022-08-28T23:27:25.604Z,22.00
2022-08-28T23:29:35.630Z,22.00
2022-08-28T23:32:06.336Z,22.80
2022-08-28T23:34:37.951Z,22.00
2022-08-28T23:37:08.335Z,22.80
2022-08-28T23:39:39.197Z,22.20
2022-08-28T23:42:09.450Z,22.75
2022-08-28T23:44:39.889Z,23.25
2022-08-28T23:47:10.265Z,22.60
2022-08-28T23:49:41.636Z,22.80
2022-08-28T23:52:12.950Z,21.20
2022-08-28T23:54:43.329Z,22.00
2022-08-28T23:57:15.387Z,21.00
2022-08-28T23:59:45.858Z,21.40
